createdAt,value
2023-04-17T00:01:42.698Z,77.82
2023-04-17T00:04:11.644Z,77.91
2023-04-17T00:06:40.203Z,78.25
2023-04-17T00:09:10.244Z,78.27
2023-04-17T00:11:38.727Z,78.34
2023-04-17T00:14:06.810Z,78.54
2023-04-17T00:16:34.998Z,78.50
2023-04-17T00:19:03.205Z,78.73
2023-04-17T00:21:32.037Z,78.76
2023-04-17T00:23:59.956Z,78.37
2023-04-17T00:26:27.879Z,78.30
2023-04-17T00:28:56.413Z,77.97
2023-04-17T00:31:24.454Z,77.69
2023-04-17T00:33:52.360Z,77.49
2023-04-17T00:36:20.291Z,77.66
2023-04-17T00:38:48.696Z,77.65
2023-04-17T00:41:16.784Z,77.65
2023-04-17T00:43:44.658Z,77.74
2023-04-17T00:46:13.880Z,77.83
2023-04-17T00:48:41.831Z,77.99
2023-04-17T00:51:13.241Z,78.54
2023-04-17T00:53:41.360Z,78.97
2023-04-17T00:56:09.367Z,78.70
2023-04-17T00:58:38.719Z,79.04
2023-04-17T01:01:06.844Z,78.71
2023-04-17T01:03:35.710Z,78.22
2023-04-17T01:06:04.905Z,78.12
2023-04-17T01:08:40.935Z,78.39
2023-04-17T01:11:10.070Z,78.27
2023-04-17T01:13:46.404Z,77.77
2023-04-17T01:16:14.859Z,77.93
2023-04-17T01:18:42.794Z,78.05
2023-04-17T01:21:11.077Z,77.89
2023-04-17T01:23:52.238Z,77.92
2023-04-17T01:26:25.027Z,78.55
2023-04-17T01:28:57.689Z,78.53
2023-04-17T01:31:26.462Z,78.54
2023-04-17T01:33:55.114Z,78.32
2023-04-17T01:36:23.182Z,78.49
2023-04-17T01:38:51.058Z,78.54
2023-04-17T01:41:19.728Z,78.63
2023-04-17T01:43:47.763Z,78.10
2023-04-17T01:46:16.002Z,77.99
2023-04-17T01:48:44.020Z,78.41
2023-04-17T01:51:12.068Z,78.25
2023-04-17T01:53:40.158Z,78.10
2023-04-17T01:56:08.101Z,77.73
2023-04-17T01:58:36.251Z,77.77
2023-04-17T02:01:04.508Z,77.46
2023-04-17T02:03:33.420Z,77.31
2023-04-17T02:06:01.756Z,77.21
2023-04-17T02:08:30.567Z,76.79
2023-04-17T02:10:59.974Z,77.07
2023-04-17T02:13:28.504Z,76.79
2023-04-17T02:15:57.946Z,76.46
2023-04-17T02:18:30.477Z,76.53
2023-04-17T02:21:01.338Z,76.65
2023-04-17T02:23:29.629Z,76.21
2023-04-17T02:25:57.930Z,76.11
2023-04-17T02:31:32.399Z,78.18
2023-04-17T02:34:00.478Z,76.59
2023-04-17T02:36:28.855Z,76.45
2023-04-17T02:38:56.832Z,76.01
2023-04-17T02:41:24.768Z,75.74
2023-04-17T02:43:53.112Z,75.88
2023-04-17T02:46:21.841Z,75.83
2023-04-17T02:48:49.898Z,75.52
2023-04-17T02:51:18.540Z,75.50
2023-04-17T02:53:46.941Z,75.44
2023-04-17T02:56:15.549Z,75.11
2023-04-17T02:58:45.162Z,75.00
2023-04-17T03:01:13.413Z,75.37
2023-04-17T03:03:45.116Z,75.33
2023-04-17T03:06:14.583Z,75.07
2023-04-17T03:08:42.503Z,74.99
2023-04-17T03:11:11.482Z,75.30
2023-04-17T03:13:39.570Z,74.97
2023-04-17T03:16:07.561Z,74.49
2023-04-17T03:18:39.743Z,74.28
2023-04-17T03:21:08.019Z,74.69
2023-04-17T03:23:36.339Z,74.64
2023-04-17T03:26:05.051Z,74.30
2023-04-17T03:28:34.048Z,74.31
2023-04-17T03:31:02.588Z,74.51
2023-04-17T03:33:32.212Z,74.18
2023-04-17T03:36:00.417Z,74.04
2023-04-17T03:38:29.838Z,74.16
2023-04-17T03:40:58.803Z,73.81
2023-04-17T03:43:27.138Z,73.49
2023-04-17T03:45:55.093Z,73.68
2023-04-17T03:48:24.333Z,73.88
2023-04-17T03:50:52.776Z,73.35
2023-04-17T03:53:20.991Z,73.33
2023-04-17T03:55:49.784Z,73.46
2023-04-17T03:58:27.250Z,73.17
2023-04-17T04:00:55.864Z,72.94
2023-04-17T04:03:26.531Z,72.98
2023-04-17T04:05:55.222Z,72.84
2023-04-17T04:08:23.828Z,72.52
2023-04-17T04:10:53.182Z,72.40
2023-04-17T04:13:34.009Z,72.15
2023-04-17T04:16:03.499Z,71.79
2023-04-17T04:18:31.924Z,71.85
2023-04-17T04:21:00.115Z,71.71
2023-04-17T04:23:31.918Z,71.29
2023-04-17T04:26:01.923Z,70.63
2023-04-17T04:28:50.653Z,70.69
2023-04-17T04:31:42.649Z,70.18
2023-04-17T04:34:13.557Z,69.05
2023-04-17T04:36:49.940Z,69.25
2023-04-17T04:39:31.102Z,68.10
2023-04-17T04:42:06.132Z,67.32
2023-04-17T04:44:42.765Z,67.12
2023-04-17T04:47:10.943Z,66.90
2023-04-17T04:49:39.084Z,66.24
2023-04-17T04:52:07.143Z,65.70
2023-04-17T04:54:36.221Z,65.54
2023-04-17T04:57:05.109Z,64.78
2023-04-17T04:59:34.081Z,64.30
2023-04-17T05:02:22.377Z,64.52
2023-04-17T05:04:52.260Z,63.91
2023-04-17T05:07:20.851Z,63.18
2023-04-17T05:09:48.858Z,63.28
2023-04-17T05:12:17.509Z,63.64
2023-04-17T05:14:45.777Z,63.52
2023-04-17T05:17:14.070Z,63.01
2023-04-17T05:19:42.158Z,63.01
2023-04-17T05:22:12.801Z,62.96
2023-04-17T05:24:50.272Z,62.00
2023-04-17T05:27:18.292Z,61.02
2023-04-17T05:29:46.517Z,61.35
2023-04-17T05:32:14.667Z,61.52
2023-04-17T05:34:52.455Z,61.04
2023-04-17T05:37:23.385Z,60.04
2023-04-17T05:39:51.434Z,59.61
2023-04-17T05:42:19.330Z,59.76
2023-04-17T05:44:47.368Z,59.31
2023-04-17T05:47:15.605Z,58.34
2023-04-17T05:49:44.261Z,57.61
2023-04-17T05:52:12.195Z,58.04
2023-04-17T05:54:42.399Z,57.49
2023-04-17T05:57:10.438Z,57.71
2023-04-17T05:59:38.576Z,57.53
2023-04-17T06:02:07.785Z,56.70
2023-04-17T06:04:36.304Z,55.52
2023-04-17T06:07:06.236Z,54.93
2023-04-17T06:09:36.717Z,55.19
2023-04-17T06:12:05.263Z,54.58
2023-04-17T06:14:33.946Z,54.20
2023-04-17T06:17:02.773Z,54.13
2023-04-17T06:19:30.694Z,53.95
2023-04-17T06:21:58.649Z,53.76
2023-04-17T06:24:26.690Z,53.65
2023-04-17T06:26:56.671Z,53.25
2023-04-17T06:29:24.596Z,52.82
2023-04-17T06:31:53.546Z,51.19
2023-04-17T06:34:21.948Z,50.04
2023-04-17T06:36:50.247Z,49.30
2023-04-17T06:39:18.852Z,48.22
2023-04-17T06:41:48.611Z,47.35
2023-04-17T06:44:24.156Z,46.82
2023-04-17T06:46:53.111Z,46.96
2023-04-17T06:49:21.020Z,46.63
2023-04-17T06:51:49.812Z,46.69
2023-04-17T06:54:17.733Z,46.79
2023-04-17T06:56:45.947Z,46.76
2023-04-17T06:59:13.982Z,46.90
2023-04-17T07:01:42.539Z,47.06
2023-04-17T07:04:10.900Z,46.68
2023-04-17T07:06:39.639Z,46.65
2023-04-17T07:09:07.870Z,46.63
2023-04-17T07:11:36.318Z,46.10
2023-04-17T07:14:04.530Z,45.76
2023-04-17T07:16:32.766Z,45.68
2023-04-17T07:19:00.725Z,45.84
2023-04-17T07:21:28.899Z,45.48
2023-04-17T07:23:57.008Z,45.71
2023-04-17T07:26:24.912Z,45.33
2023-04-17T07:28:53.054Z,44.69
2023-04-17T07:31:22.406Z,44.30
2023-04-17T07:33:50.732Z,44.51
2023-04-17T07:36:18.635Z,44.71
2023-04-17T07:38:46.713Z,45.16
2023-04-17T07:41:14.634Z,44.98
2023-04-17T07:43:42.457Z,44.41
2023-04-17T07:46:10.369Z,44.21
2023-04-17T07:48:39.193Z,44.07
2023-04-17T07:51:07.863Z,43.72
2023-04-17T07:53:37.439Z,43.67
2023-04-17T07:56:06.475Z,43.62
2023-04-17T07:58:36.039Z,43.41
2023-04-17T08:01:07.112Z,42.97
2023-04-17T08:03:35.478Z,43.00
2023-04-17T08:06:03.832Z,43.25
2023-04-17T08:08:32.291Z,43.33
2023-04-17T08:11:00.476Z,42.99
2023-04-17T08:13:32.412Z,42.85
2023-04-17T08:16:02.052Z,43.04
2023-04-17T08:18:32.346Z,43.19
2023-04-17T08:21:00.346Z,42.89
2023-04-17T08:23:28.527Z,42.75
2023-04-17T08:25:56.385Z,41.99
2023-04-17T08:28:25.210Z,41.40
2023-04-17T08:30:53.243Z,41.04
2023-04-17T08:33:21.394Z,41.04
2023-04-17T08:35:49.409Z,40.90
2023-04-17T08:38:17.377Z,40.68
2023-04-17T08:40:47.141Z,41.53
2023-04-17T08:43:21.131Z,41.79
2023-04-17T08:45:53.928Z,41.72
2023-04-17T08:48:22.985Z,41.96
2023-04-17T08:50:52.436Z,41.53
2023-04-17T08:53:21.339Z,39.47
2023-04-17T08:55:49.210Z,40.64
2023-04-17T08:58:18.000Z,40.77
2023-04-17T09:00:45.898Z,40.57
2023-04-17T09:03:14.234Z,40.04
2023-04-17T09:05:46.141Z,40.11
2023-04-17T09:08:17.187Z,39.90
2023-04-17T09:10:46.805Z,39.71
2023-04-17T09:13:16.546Z,40.03
2023-04-17T09:15:45.859Z,40.29
2023-04-17T09:18:27.397Z,40.37
2023-04-17T09:20:57.718Z,40.08
2023-04-17T09:23:27.191Z,40.21
2023-04-17T09:26:08.646Z,40.53
2023-04-17T09:28:40.794Z,39.43
2023-04-17T09:31:17.872Z,39.73
2023-04-17T09:34:12.208Z,39.54
2023-04-17T09:36:42.169Z,39.08
2023-04-17T09:39:21.173Z,38.33
2023-04-17T09:41:49.329Z,38.42
2023-04-17T09:44:26.081Z,38.65
2023-04-17T09:46:54.314Z,39.13
2023-04-17T09:49:40.018Z,39.71
2023-04-17T09:52:08.422Z,39.86
2023-04-17T09:54:39.297Z,40.51
2023-04-17T09:57:08.543Z,41.17
2023-04-17T09:59:42.128Z,41.32
2023-04-17T10:02:12.650Z,41.43
2023-04-17T10:04:41.914Z,41.77
2023-04-17T10:07:10.223Z,42.53
2023-04-17T10:09:39.954Z,42.94
2023-04-17T10:12:12.015Z,43.15
2023-04-17T10:14:40.320Z,43.21
2023-04-17T10:17:37.363Z,43.38
2023-04-17T10:20:17.731Z,44.38
2023-04-17T10:22:54.267Z,44.16
2023-04-17T10:25:23.004Z,43.62
2023-04-17T10:27:54.460Z,43.19
2023-04-17T10:30:23.278Z,43.15
2023-04-17T10:33:19.998Z,42.87
2023-04-17T10:35:48.314Z,42.54
2023-04-17T10:38:17.619Z,42.68
2023-04-17T10:40:46.119Z,42.61
2023-04-17T10:43:15.324Z,42.80
2023-04-17T10:46:02.857Z,42.95
2023-04-17T10:48:39.305Z,42.83
2023-04-17T10:51:29.248Z,42.20
2023-04-17T10:54:01.503Z,42.72
2023-04-17T10:56:35.787Z,42.71
2023-04-17T10:59:03.819Z,42.59
2023-04-17T11:01:37.673Z,42.29
2023-04-17T11:04:06.642Z,42.06
2023-04-17T11:06:39.514Z,41.91
2023-04-17T11:09:10.657Z,42.25
2023-04-17T11:11:44.272Z,42.83
2023-04-17T11:14:14.975Z,42.72
2023-04-17T11:16:44.332Z,42.33
2023-04-17T11:19:17.143Z,41.66
2023-04-17T11:21:45.876Z,42.39
2023-04-17T11:24:13.976Z,41.77
2023-04-17T11:26:46.660Z,41.28
2023-04-17T11:29:18.699Z,40.46
2023-04-17T11:31:47.127Z,40.31
2023-04-17T11:34:16.463Z,40.01
2023-04-17T11:36:54.791Z,39.65
2023-04-17T11:39:23.577Z,39.88
2023-04-17T11:41:52.158Z,39.69
2023-04-17T11:44:21.273Z,38.95
2023-04-17T11:46:51.355Z,38.16
2023-04-17T11:49:28.587Z,38.70
2023-04-17T11:51:57.661Z,38.43
2023-04-17T11:54:29.418Z,37.94
2023-04-17T11:57:09.508Z,38.14
2023-04-17T11:59:39.160Z,38.26
2023-04-17T12:02:08.660Z,38.80
2023-04-17T12:04:38.086Z,39.16
2023-04-17T12:07:07.208Z,39.68
2023-04-17T12:09:35.940Z,39.04
2023-04-17T12:12:05.528Z,38.33
2023-04-17T12:14:33.863Z,38.48
2023-04-17T12:17:01.863Z,37.35
2023-04-17T12:19:32.033Z,35.80
2023-04-17T12:22:00.248Z,35.18
2023-04-17T12:24:28.252Z,34.69
2023-04-17T12:26:57.321Z,34.10
2023-04-17T12:29:36.788Z,32.62
2023-04-17T12:32:11.961Z,32.69
2023-04-17T12:34:40.577Z,33.08
2023-04-17T12:37:09.086Z,32.45
2023-04-17T12:39:38.395Z,31.81
2023-04-17T12:42:06.586Z,31.68
2023-04-17T12:44:35.333Z,31.33
2023-04-17T12:47:03.677Z,31.57
2023-04-17T12:49:32.079Z,31.70
2023-04-17T12:52:02.463Z,31.53
2023-04-17T12:54:31.999Z,31.78
2023-04-17T12:56:59.877Z,32.24
2023-04-17T12:59:27.777Z,32.52
2023-04-17T13:01:56.760Z,32.32
2023-04-17T13:04:24.905Z,31.45
2023-04-17T13:06:52.935Z,30.63
2023-04-17T13:09:20.910Z,29.40
2023-04-17T13:11:48.784Z,29.35
2023-04-17T13:14:17.741Z,29.01
2023-04-17T13:16:46.024Z,28.83
2023-04-17T13:19:15.371Z,28.50
2023-04-17T13:21:43.533Z,28.24
2023-04-17T13:24:14.905Z,28.21
2023-04-17T13:26:44.305Z,28.21
2023-04-17T13:29:12.696Z,28.16
2023-04-17T13:31:41.159Z,28.28
2023-04-17T13:34:13.041Z,28.07
2023-04-17T13:36:42.533Z,27.74
2023-04-17T13:39:11.625Z,28.40
2023-04-17T13:41:39.755Z,29.14
2023-04-17T13:44:07.657Z,29.69
2023-04-17T13:46:36.699Z,30.07
2023-04-17T13:49:04.628Z,30.42
2023-04-17T13:51:33.593Z,31.37
2023-04-17T13:54:01.576Z,31.70
2023-04-17T13:56:30.003Z,31.32
2023-04-17T13:58:58.003Z,31.12
2023-04-17T14:01:26.087Z,31.24
2023-04-17T14:03:54.366Z,31.50
2023-04-17T14:06:26.244Z,31.67
2023-04-17T14:08:57.285Z,31.48
2023-04-17T14:11:25.392Z,31.62
2023-04-17T14:13:54.474Z,32.20
2023-04-17T14:16:22.399Z,32.09
2023-04-17T14:18:50.694Z,31.77
2023-04-17T14:21:18.695Z,31.72
2023-04-17T14:23:46.661Z,31.71
2023-04-17T14:26:15.664Z,31.37
2023-04-17T14:28:43.585Z,30.80
2023-04-17T14:31:11.611Z,31.11
2023-04-17T14:33:39.572Z,31.76
2023-04-17T14:36:07.684Z,31.59
2023-04-17T14:38:36.491Z,31.16
2023-04-17T14:41:04.636Z,31.18
2023-04-17T14:43:32.539Z,30.93
2023-04-17T14:46:00.852Z,31.11
2023-04-17T14:49:32.952Z,31.69
2023-04-17T14:51:59.493Z,31.07
2023-04-17T14:54:26.516Z,31.20
2023-04-17T14:56:53.461Z,31.19
2023-04-17T14:59:20.043Z,31.35
2023-04-17T15:01:47.011Z,31.73
2023-04-17T15:04:13.972Z,32.41
2023-04-17T15:06:42.523Z,33.32
2023-04-17T15:09:10.122Z,33.47
2023-04-17T15:11:36.972Z,33.97
2023-04-17T15:14:03.840Z,34.43
2023-04-17T15:16:30.529Z,34.93
2023-04-17T15:18:57.144Z,35.07
2023-04-17T15:21:23.750Z,35.12
2023-04-17T15:23:50.633Z,35.46
2023-04-17T15:26:17.235Z,35.26
2023-04-17T15:28:43.810Z,35.65
2023-04-17T15:31:10.738Z,35.29
2023-04-17T15:33:37.399Z,35.47
2023-04-17T15:36:04.300Z,35.40
2023-04-17T15:38:31.755Z,35.33
2023-04-17T15:40:58.398Z,35.18
2023-04-17T15:43:25.223Z,34.71
2023-04-17T15:45:51.937Z,34.74
2023-04-17T15:48:18.554Z,34.69
2023-04-17T15:50:45.985Z,34.68
2023-04-17T15:53:13.931Z,34.70
2023-04-17T15:55:40.783Z,34.76
2023-04-17T15:58:07.694Z,34.85
2023-04-17T16:00:34.970Z,35.09
2023-04-17T16:03:01.924Z,34.96
2023-04-17T16:05:30.421Z,35.13
2023-04-17T16:07:57.249Z,35.40
2023-04-17T16:10:24.176Z,35.30
2023-04-17T16:12:50.774Z,35.44
2023-04-17T16:15:17.469Z,35.49
2023-04-17T16:17:45.009Z,35.62
2023-04-17T16:20:11.943Z,35.82
2023-04-17T16:22:38.889Z,35.85
2023-04-17T16:25:06.305Z,36.10
2023-04-17T16:27:33.616Z,36.31
2023-04-17T16:30:02.397Z,36.27
2023-04-17T16:32:31.219Z,36.37
2023-04-17T16:34:58.140Z,36.42
2023-04-17T16:37:25.141Z,36.58
2023-04-17T16:39:51.809Z,36.53
2023-04-17T16:42:18.309Z,36.82
2023-04-17T16:44:44.971Z,36.73
2023-04-17T16:47:13.939Z,37.05
2023-04-17T16:49:41.956Z,37.14
2023-04-17T16:52:08.584Z,36.94
2023-04-17T16:54:35.379Z,37.23
2023-04-17T16:57:02.909Z,37.20
2023-04-17T16:59:29.985Z,37.14
2023-04-17T17:01:56.796Z,37.46
2023-04-17T17:04:25.095Z,37.50
2023-04-17T17:06:51.638Z,37.75
2023-04-17T17:09:19.666Z,37.69
2023-04-17T17:11:46.695Z,37.80
2023-04-17T17:14:15.401Z,37.87
2023-04-17T17:16:42.025Z,38.01
2023-04-17T17:19:08.998Z,37.94
2023-04-17T17:21:35.759Z,38.00
2023-04-17T17:24:02.370Z,38.11
2023-04-17T17:26:29.383Z,38.21
2023-04-17T17:28:56.898Z,38.36
2023-04-17T17:31:23.481Z,38.73
2023-04-17T17:33:50.971Z,38.73
2023-04-17T17:36:17.611Z,38.96
2023-04-17T17:38:44.198Z,39.05
2023-04-17T17:41:10.771Z,38.99
2023-04-17T17:43:37.908Z,39.10
2023-04-17T17:46:04.684Z,39.26
2023-04-17T17:48:33.618Z,39.34
2023-04-17T17:51:00.134Z,39.42
2023-04-17T17:53:28.301Z,39.60
2023-04-17T17:55:55.313Z,39.86
2023-04-17T17:58:22.142Z,39.97
2023-04-17T18:00:49.392Z,39.89
2023-04-17T18:03:16.104Z,40.11
2023-04-17T18:05:43.385Z,40.15
2023-04-17T18:08:09.934Z,40.29
2023-04-17T18:10:36.675Z,40.41
2023-04-17T18:13:03.490Z,40.62
2023-04-17T18:15:30.368Z,40.62
2023-04-17T18:17:59.790Z,40.83
2023-04-17T18:20:26.476Z,41.06
2023-04-17T18:22:53.142Z,41.14
2023-04-17T18:25:19.774Z,41.05
2023-04-17T18:27:46.268Z,41.10
2023-04-17T18:30:13.577Z,41.23
2023-04-17T18:32:41.563Z,41.39
2023-04-17T18:35:08.383Z,41.63
2023-04-17T18:37:36.084Z,41.52
2023-04-17T18:40:02.678Z,41.74
2023-04-17T18:42:29.606Z,41.59
2023-04-17T18:44:56.112Z,41.70
2023-04-17T18:47:22.698Z,41.71
2023-04-17T18:49:52.231Z,41.75
2023-04-17T18:52:19.185Z,41.92
2023-04-17T18:54:45.677Z,41.91
2023-04-17T18:57:12.404Z,42.01
2023-04-17T18:59:39.738Z,42.10
2023-04-17T19:02:07.159Z,42.30
2023-04-17T19:04:34.397Z,42.35
2023-04-17T19:07:02.085Z,42.27
2023-04-17T19:09:28.951Z,42.47
2023-04-17T19:11:55.837Z,42.28
2023-04-17T19:14:22.455Z,42.54
2023-04-17T19:16:49.127Z,42.56
2023-04-17T19:19:16.090Z,42.69
2023-04-17T19:21:42.709Z,42.70
2023-04-17T19:24:09.366Z,42.73
2023-04-17T19:26:36.275Z,42.80
2023-04-17T19:29:04.214Z,42.98
2023-04-17T19:31:32.275Z,43.16
2023-04-17T19:33:59.703Z,42.93
2023-04-17T19:36:26.839Z,42.97
2023-04-17T19:38:54.912Z,43.20
2023-04-17T19:41:21.479Z,43.35
2023-04-17T19:43:49.215Z,43.62
2023-04-17T19:46:16.406Z,43.74
2023-04-17T19:48:44.151Z,43.86
2023-04-17T19:51:11.399Z,43.92
2023-04-17T19:53:38.927Z,44.04
2023-04-17T19:56:08.316Z,43.87
2023-04-17T19:58:36.209Z,43.97
2023-04-17T20:01:03.013Z,43.81
2023-04-17T20:03:31.654Z,43.99
2023-04-17T20:05:58.590Z,44.00
2023-04-17T20:08:25.446Z,43.95
2023-04-17T20:10:52.015Z,44.26
2023-04-17T20:13:18.857Z,44.01
2023-04-17T20:15:45.373Z,44.18
2023-04-17T20:18:11.904Z,44.28
2023-04-17T20:20:38.558Z,44.39
2023-04-17T20:23:05.133Z,44.38
2023-04-17T20:25:31.610Z,44.45
2023-04-17T20:27:58.176Z,44.58
2023-04-17T20:30:24.827Z,44.44
2023-04-17T20:32:51.426Z,44.45
2023-04-17T20:35:20.318Z,44.72
2023-04-17T20:37:46.907Z,44.75
2023-04-17T20:40:13.590Z,44.85
2023-04-17T20:42:40.911Z,44.74
2023-04-17T20:45:07.932Z,44.63
2023-04-17T20:47:34.975Z,44.64
2023-04-17T20:50:01.787Z,44.64
2023-04-17T20:52:28.480Z,44.78
2023-04-17T20:54:55.299Z,44.79
2023-04-17T20:57:22.478Z,45.02
2023-04-17T20:59:48.974Z,44.97
2023-04-17T21:02:15.615Z,45.17
2023-04-17T21:04:42.888Z,45.31
2023-04-17T21:07:09.348Z,45.32
2023-04-17T21:09:36.046Z,45.35
2023-04-17T21:12:02.685Z,45.47
2023-04-17T21:14:29.839Z,45.53
2023-04-17T21:16:57.905Z,45.92
2023-04-17T21:19:27.619Z,45.70
2023-04-17T21:21:54.473Z,45.84
2023-04-17T21:24:21.099Z,45.81
2023-04-17T21:26:47.597Z,45.92
2023-04-17T21:29:14.075Z,46.03
2023-04-17T21:31:41.223Z,46.04
2023-04-17T21:34:07.916Z,46.04
2023-04-17T21:36:34.800Z,46.28
2023-04-17T21:39:01.295Z,46.39
2023-04-17T21:41:30.586Z,46.59
2023-04-17T21:44:00.842Z,46.56
2023-04-17T21:46:28.538Z,46.81
2023-04-17T21:48:55.792Z,46.41
2023-04-17T21:51:22.767Z,46.18
2023-04-17T21:53:49.392Z,46.00
2023-04-17T21:56:15.943Z,45.98
2023-04-17T21:58:42.477Z,45.89
2023-04-17T22:01:09.167Z,46.07
2023-04-17T22:03:35.958Z,45.82
2023-04-17T22:06:03.016Z,46.17
2023-04-17T22:08:30.064Z,45.98
2023-04-17T22:10:56.608Z,45.99
2023-04-17T22:13:25.341Z,45.83
2023-04-17T22:15:51.938Z,46.09
2023-04-17T22:18:18.402Z,46.26
2023-04-17T22:20:45.035Z,46.44
2023-04-17T22:23:11.557Z,46.26
2023-04-17T22:25:38.297Z,46.36
2023-04-17T22:28:04.796Z,46.54
2023-04-17T22:30:31.408Z,46.24
2023-04-17T22:32:57.974Z,46.54
2023-04-17T22:35:24.514Z,46.49
2023-04-17T22:37:51.281Z,46.57
2023-04-17T22:40:17.940Z,47.03
2023-04-17T22:42:44.558Z,47.08
2023-04-17T22:45:11.160Z,47.01
2023-04-17T22:47:37.905Z,46.92
2023-04-17T22:50:05.873Z,46.75
2023-04-17T22:52:32.727Z,46.71
2023-04-17T22:54:59.288Z,46.64
2023-04-17T22:57:25.845Z,46.65
2023-04-17T22:59:52.423Z,46.51
2023-04-17T23:02:18.985Z,46.37
2023-04-17T23:04:45.510Z,46.49
2023-04-17T23:07:12.297Z,46.33
2023-04-17T23:09:38.973Z,46.51
2023-04-17T23:12:06.573Z,46.55
2023-04-17T23:14:33.130Z,46.63
2023-04-17T23:16:59.614Z,46.99
2023-04-17T23:19:26.161Z,46.90
2023-04-17T23:21:52.772Z,47.16
2023-04-17T23:24:19.334Z,47.00
2023-04-17T23:26:47.847Z,47.28
2023-04-17T23:29:14.452Z,47.03
2023-04-17T23:31:42.192Z,47.20
2023-04-17T23:34:08.754Z,47.16
2023-04-17T23:36:36.220Z,47.25
2023-04-17T23:39:05.042Z,47.17
2023-04-17T23:41:33.103Z,47.27
2023-04-17T23:43:59.677Z,47.42
2023-04-17T23:46:26.205Z,47.41
2023-04-17T23:48:52.692Z,47.25
2023-04-17T23:51:19.311Z,47.19
2023-04-17T23:53:45.882Z,47.28
2023-04-17T23:56:12.443Z,46.93
2023-04-17T23:58:39.028Z,46.58
